Latest Weather Observations for Ballarat

IDV60801

Issued at 5:02 am EDT Thursday 8 December 2016 (issued every 30 minutes, with the page automatically refreshed every 10 minutes)

About weather observations | Map of weather stations | Latest weather observations for VIC | Other Formats
Station Details ID: 089002 Name: BALLARAT AERODROME Lat: -37.51 Lon: 143.79 Height: 435.2 m
Data from the previous 72 hours. | See also: Recent months at Ballarat
Date/Time
EDT
Temp
°C
App
Temp
°C
Dew
Point
°C
Rel
Hum
%
Delta-T
°C
Wind Press
QNH
hPa
Press
MSL
hPa
Rain since
9am
mm
Dir  Spd
km/h
Gust
km/h
Spd
kts
Gust
kts
08/04:31am 15.5 7.5 11.1 75 2.4 NNE 44 63 24 34 999.9 998.8 0.2
08/04:30am 15.5 7.1 10.9 74 2.5 NNE 46 63 25 34 999.9 998.8 0.2
08/04:26am 16.1 8.0 10.8 71 2.9 N 44 63 24 34 999.6 998.5 0.2
08/04:17am 15.9 8.5 11.1 73 2.6 NNE 41 54 22 29 999.8 998.7 0.2
08/04:00am 15.4 10.9 11.4 77 2.2 N 26 35 14 19 1000.9 999.9 0.2
08/03:30am 19.9 11.6 5.9 40 7.1 N 39 54 21 29 1000.3 999.2 0.0
08/03:07am 19.7 11.0 6.1 41 6.9 N 41 59 22 32 1000.0 998.9 0.0
08/03:00am 19.8 10.2 6.2 41 7.0 N 46 57 25 31 1000.0 998.9 0.0
08/02:30am 19.7 11.0 6.1 41 6.9 N 41 54 22 29 1000.5 999.4 0.0
08/02:00am 19.8 11.8 5.8 40 7.1 N 37 54 20 29 1001.0 1000.0 0.0
08/01:47am 19.8 11.8 5.8 40 7.1 N 37 56 20 30 1001.6 1000.5 0.0
08/01:30am 19.9 12.3 5.9 40 7.1 N 35 44 19 24 1002.3 1001.2 0.0
08/01:00am 20.7 12.3 5.5 37 7.7 N 39 52 21 28 1003.0 1002.0 0.0
08/12:30am 20.1 12.5 5.7 39 7.3 N 35 46 19 25 1003.8 1002.7 0.0
08/12:00am 20.2 13.1 5.4 38 7.5 N 32 39 17 21 1004.3 1003.2 0.0
 
Date/Time
EDT
Temp
°C
App
Temp
°C
Dew
Point
°C
Rel
Hum
%
Delta-T
°C
Wind Press
QNH
hPa
Press
MSL
hPa
Rain since
9am
mm
Dir  Spd
km/h
Gust
km/h
Spd
kts
Gust
kts
07/11:30pm 19.8 14.1 5.1 38 7.3 NNE 24 28 13 15 1005.2 1004.2 0.0
07/11:00pm 19.9 15.5 4.8 37 7.5 NNE 17 24 9 13 1006.4 1005.3 0.0
07/10:30pm 18.2 14.6 5.1 42 6.5 NE 13 17 7 9 1006.8 1005.8 0.0
07/10:00pm 18.1 14.8 6.3 46 6.0 NE 13 15 7 8 1007.2 1006.2 0.0
07/09:30pm 16.7 13.3 5.9 49 5.4 NE 13 15 7 8 1007.4 1006.4 0.0
07/09:00pm 18.4 14.9 5.3 42 6.5 N 13 13 7 7 1007.9 1006.9 0.0
07/08:30pm 19.1 15.5 5.2 40 6.9 N 13 13 7 7 1008.2 1007.2 0.0
07/08:00pm 20.7 17.2 5.5 37 7.7 N 13 15 7 8 1008.5 1007.4 0.0
07/07:30pm 23.5 19.3 4.0 28 9.8 NW 15 19 8 10 1008.7 1007.7 0.0
07/07:00pm 24.4 18.9 1.9 23 10.9 NNW 20 28 11 15 1008.9 1007.9 0.0
07/06:30pm 24.7 18.7 0.9 21 11.4 NW 22 37 12 20 1009.2 1008.2 0.0
07/06:00pm 24.9 18.2 -1.0 18 12.0 NNW 24 33 13 18 1009.4 1008.4 0.0
07/05:30pm 24.9 17.9 -0.3 19 11.8 NW 26 35 14 19 1009.9 1008.9 0.0
07/05:00pm 24.7 18.3 0.9 21 11.4 NW 24 37 13 20 1010.3 1009.3 0.0
07/04:30pm 24.5 18.6 1.4 22 11.1 NW 22 35 12 19 1011.1 1010.1 0.0
07/04:00pm 25.2 19.7 3.8 25 10.8 NNW 22 35 12 19 1011.5 1010.5 0.0
07/03:30pm 23.9 18.5 2.7 25 10.4 NW 20 33 11 18 1011.8 1010.8 0.0
07/03:00pm 23.3 17.0 1.6 24 10.4 NNW 24 39 13 21 1012.3 1011.3 0.0
07/02:30pm 23.8 18.1 2.6 25 10.4 NW 22 39 12 21 1012.6 1011.6 0.0
07/02:00pm 22.8 17.7 2.8 27 9.8 NNW 19 30 10 16 1013.1 1012.2 0.0
07/01:30pm 22.0 17.1 4.1 31 8.9 NNE 19 30 10 16 1013.6 1012.6 0.0
07/01:00pm 21.1 17.5 6.6 39 7.5 NW 15 24 8 13 1014.0 1013.0 0.0
07/12:30pm 20.6 16.7 5.4 37 7.7 N 15 30 8 16 1014.3 1013.3 0.0
07/12:00pm 19.1 16.2 4.5 38 7.2 NNW 9 20 5 11 1014.8 1013.9 0.0
07/11:30am 19.0 15.5 5.5 41 6.8 N 13 22 7 12 1014.9 1014.0 0.0
07/11:00am 17.7 15.1 5.9 46 5.9 W 9 15 5 8 1015.0 1014.1 0.0
07/10:30am 17.4 15.4 6.3 48 5.6 WNW 6 15 3 8 1015.3 1014.4 0.0
07/10:00am 16.9 14.9 6.4 50 5.3 E 6 11 3 6 1015.4 1014.5 0.0
07/09:30am 16.0 13.5 5.0 48 5.3 ESE 7 15 4 8 1015.7 1014.7 0.0
07/09:00am 15.1 12.0 3.6 46 5.4 ESE 9 15 5 8 1015.4 1014.5 0.0
07/08:30am 13.3 10.7 5.9 61 3.6 SE 9 11 5 6 1015.3 1014.4 0.0
07/08:00am 11.4 10.0 9.7 89 0.9 S 7 9 4 5 1015.1 1014.2 0.0
07/07:30am 9.8 8.4 9.5 98 0.2 S 7 9 4 5 1015.1 1014.2 0.0
07/07:00am 8.1 6.3 8.0 99 0.0 S 7 9 4 5 1014.9 1014.0 0.0
07/06:30am 6.3 3.7 6.0 98 0.1 SSE 9 11 5 6 1015.1 1014.2 0.0
07/06:00am 6.5 3.9 6.2 98 0.1 S 9 13 5 7 1015.0 1014.1 0.0
07/05:30am 6.6 4.4 6.3 98 0.1 S 7 9 4 5 1014.7 1013.8 0.0
07/05:00am 7.6 5.6 7.2 97 0.2 SSE 7 7 4 4 1014.5 1013.5 0.0
07/04:30am 7.5 5.5 7.2 98 0.1 SSE 7 9 4 5 1014.3 1013.3 0.0
07/04:00am 7.0 4.5 6.7 98 0.1 SE 9 11 5 6 1014.0 1013.0 0.0
07/03:30am 6.6 3.7 6.3 98 0.1 SE 11 13 6 7 1014.1 1013.1 0.0
07/03:00am 6.9 3.6 6.6 98 0.1 SE 13 15 7 8 1014.3 1013.3 0.0
07/02:30am 7.2 4.4 6.9 98 0.1 SE 11 13 6 7 1014.6 1013.6 0.0
07/02:00am 7.5 4.4 7.2 98 0.1 SE 13 15 7 8 1015.0 1014.1 0.0
07/01:30am 8.0 4.6 7.7 98 0.1 SE 15 17 8 9 1015.2 1014.3 0.0
07/01:00am 8.3 5.7 7.7 96 0.3 SE 11 17 6 9 1015.2 1014.3 0.0
07/12:30am 8.4 5.8 7.6 95 0.4 SE 11 15 6 8 1015.4 1014.5 0.0
07/12:00am 9.0 6.0 7.8 92 0.6 SE 13 20 7 11 1015.8 1014.8 0.0
 
Date/Time
EDT
Temp
°C
App
Temp
°C
Dew
Point
°C
Rel
Hum
%
Delta-T
°C
Wind Press
QNH
hPa
Press
MSL
hPa
Rain since
9am
mm
Dir  Spd
km/h
Gust
km/h
Spd
kts
Gust
kts
06/11:30pm 9.5 6.2 7.9 90 0.8 SE 15 17 8 9 1016.0 1015.0 0.0
06/11:00pm 10.0 6.7 8.1 88 0.9 SE 15 19 8 10 1015.9 1014.9 0.0
06/10:30pm 11.0 7.4 8.2 83 1.4 SE 17 22 9 12 1015.9 1014.9 0.0
06/10:00pm 11.7 8.2 7.2 74 2.2 SSE 15 19 8 10 1015.9 1014.9 0.0
06/09:30pm 12.2 7.8 4.7 60 3.5 SSE 17 22 9 12 1015.5 1014.6 0.0
06/09:00pm 13.0 9.1 5.2 59 3.7 SSE 15 20 8 11 1015.1 1014.2 0.0
06/08:30pm 14.2 9.8 4.8 53 4.5 S 17 20 9 11 1014.9 1014.0 0.0
06/08:00pm 15.7 11.2 4.4 47 5.4 S 17 24 9 13 1014.9 1014.0 0.0
06/07:30pm 16.8 11.3 4.2 43 6.0 S 22 28 12 15 1014.5 1013.5 0.0
06/07:00pm 18.2 14.4 4.0 39 6.9 SSW 13 24 7 13 1014.2 1013.2 0.0
06/06:30pm 18.7 14.3 4.5 39 7.0 SSW 17 26 9 14 1014.2 1013.2 0.0
06/06:00pm 19.2 15.3 5.3 40 6.9 SSW 15 22 8 12 1014.1 1013.1 0.0
06/05:30pm 19.4 15.4 5.1 39 7.1 SSW 15 24 8 13 1013.9 1012.9 0.0
06/05:00pm 19.1 15.2 5.2 40 6.9 SW 15 20 8 11 1013.9 1012.9 0.0
06/04:30pm 19.2 15.1 4.2 37 7.3 SSW 15 24 8 13 1013.7 1012.7 0.0
06/04:00pm 19.4 14.9 4.4 37 7.4 SSW 17 24 9 13 1013.7 1012.7 0.0
06/03:30pm 18.3 13.5 4.8 41 6.6 SSE 19 30 10 16 1013.8 1012.8 0.0
06/03:00pm 18.7 14.5 5.5 42 6.6 SW 17 26 9 14 1014.1 1013.1 0.0
06/02:30pm 18.1 13.8 5.3 43 6.3 SSW 17 26 9 14 1014.0 1013.0 0.0
06/02:00pm 18.1 14.7 7.5 50 5.5 SSW 15 26 8 14 1014.2 1013.2 0.0
06/01:30pm 17.6 14.0 6.8 49 5.5 WSW 15 24 8 13 1014.2 1013.2 0.0
06/01:00pm 17.7 14.5 6.9 49 5.5 WSW 13 22 7 12 1014.5 1013.5 0.0
06/12:30pm 16.6 13.1 7.3 54 4.7 SW 15 26 8 14 1014.4 1013.4 0.0
06/12:00pm 16.7 13.4 7.9 56 4.5 SW 15 24 8 13 1014.5 1013.5 0.0
06/11:30am 15.6 12.8 8.6 63 3.6 SW 13 20 7 11 1014.8 1013.9 0.0
06/11:00am 14.6 12.6 8.8 68 3.0 S 9 19 5 10 1014.4 1013.4 0.0
06/10:30am 14.4 12.2 9.2 71 2.7 SSW 11 19 6 10 1014.4 1013.4 0.0
06/10:00am 13.4 11.2 9.5 77 2.0 S 11 17 6 9 1014.3 1013.3 0.0
06/09:30am 13.1 11.4 9.7 80 1.8 SSE 9 15 5 8 1014.9 1014.0 0.0
06/09:13am 12.6 10.3 10.3 86 1.2 SSE 13 19 7 10 1014.7 1013.8 0.0
06/09:00am 12.1 9.9 10.7 91 0.7 SSE 13 17 7 9 1014.5 1013.5 0.2
06/08:40am 11.7 9.7 11.4 98 0.2 SE 13 17 7 9 1014.6 1013.6 0.2
06/08:30am 11.4 9.3 11.1 98 0.2 SE 13 17 7 9 1014.3 1013.3 0.2
06/08:08am 11.0 8.8 10.7 98 0.2 SSE 13 17 7 9 1014.2 1013.2 0.2
06/08:00am 10.8 8.1 10.5 98 0.2 SSE 15 20 8 11 1014.1 1013.1 0.2
06/07:30am 10.6 7.5 10.3 98 0.2 S 17 20 9 11 1013.9 1012.9 0.2
06/07:00am 10.2 7.0 10.1 99 0.1 SSE 17 24 9 13 1013.6 1012.6 0.2
06/06:32am 9.6 7.4 9.5 99 0.1 S 11 15 6 8 1013.4 1012.4 0.2
06/06:30am 9.5 6.9 9.4 99 0.1 S 13 15 7 8 1013.5 1012.5 0.2
06/06:00am 9.3 6.3 9.2 99 0.1 S 15 19 8 10 1013.1 1012.2 0.2
06/05:30am 9.5 6.9 9.4 99 0.1 S 13 17 7 9 1012.3 1011.3 0.2
06/05:00am 9.5 7.7 9.4 99 0.1 SSE 9 13 5 7 1011.9 1010.9 0.2
06/04:30am 9.8 7.7 9.7 99 0.1 SSE 11 15 6 8 1011.7 1010.7 0.2
06/04:00am 10.0 7.2 9.9 99 0.1 SE 15 19 8 10 1011.8 1010.8 0.2
06/03:30am 10.1 7.2 9.8 98 0.2 SE 15 19 8 10 1011.9 1010.9 0.2
06/03:00am 10.3 6.6 10.0 98 0.2 SE 20 28 11 15 1011.1 1010.1 0.2
06/02:48am 10.2 6.6 9.9 98 0.2 SE 19 24 10 13 1011.1 1010.1 0.2
06/02:30am 10.4 6.7 10.1 98 0.2 SE 20 28 11 15 1011.8 1010.8 0.2
06/02:00am 10.6 6.9 10.3 98 0.2 SE 20 28 11 15 1012.3 1011.3 0.2
06/01:58am 10.6 6.9 10.3 98 0.2 SE 20 28 11 15 1012.5 1011.5 0.2
06/01:30am 10.6 6.6 10.3 98 0.2 SE 22 28 12 15 1012.7 1011.8 0.2
06/01:24am 10.6 6.9 10.3 98 0.2 SE 20 28 11 15 1012.6 1011.6 0.2
06/01:00am 10.7 7.3 10.4 98 0.2 SE 19 28 10 15 1012.5 1011.5 0.2
06/12:30am 11.0 7.4 10.7 98 0.2 ESE 20 26 11 14 1013.3 1012.3 0.2
06/12:00am 10.9 6.2 10.6 98 0.2 SE 26 35 14 19 1012.9 1012.0 0.2
 
Date/Time
EDT
Temp
°C
App
Temp
°C
Dew
Point
°C
Rel
Hum
%
Delta-T
°C
Wind Press
QNH
hPa
Press
MSL
hPa
Rain since
9am
mm
Dir  Spd
km/h
Gust
km/h
Spd
kts
Gust
kts
05/11:33pm 10.9 6.6 10.7 99 0.1 SE 24 32 13 17 1012.9 1012.0 0.2
05/11:30pm 10.9 7.0 10.7 99 0.1 SE 22 30 12 16 1013.1 1012.2 0.2
05/11:00pm 11.0 6.3 10.7 98 0.2 SE 26 32 14 17 1013.3 1012.3 0.2
05/10:30pm 11.8 7.7 11.5 98 0.2 ESE 24 33 13 18 1013.4 1012.4 0.2
05/10:00pm 12.5 8.1 11.6 94 0.5 SSE 26 35 14 19 1014.0 1013.0 0.2
05/09:30pm 13.4 10.1 11.5 88 1.0 SE 20 24 11 13 1014.9 1014.0 0.2
05/09:00pm 14.0 10.2 11.0 82 1.6 S 22 28 12 15 1014.1 1013.1 0.2
05/08:30pm 14.6 10.0 9.8 73 2.5 S 24 33 13 18 1013.7 1012.7 0.2
05/08:00pm 15.3 11.4 9.4 68 3.1 S 20 28 11 15 1013.0 1012.1 0.2
05/07:30pm 16.1 12.4 9.3 64 3.6 SSW 19 26 10 14 1013.3 1012.3 0.2
05/07:00pm 17.3 13.8 7.4 52 5.1 S 15 22 8 12 1013.0 1012.1 0.2
05/06:30pm 18.6 14.6 6.8 46 6.0 S 17 26 9 14 1013.1 1012.2 0.2
05/06:00pm 19.4 15.6 5.8 41 6.9 S 15 22 8 12 1012.7 1011.8 0.2
05/05:30pm 19.0 14.9 6.2 43 6.5 S 17 28 9 15 1012.4 1011.4 0.2
05/05:00pm 19.3 15.2 6.4 43 6.6 S 17 24 9 13 1012.4 1011.4 0.2
05/04:30pm 19.2 15.3 7.0 45 6.3 SSW 17 24 9 13 1012.5 1011.5 0.2
05/04:00pm 19.2 15.4 6.0 42 6.7 SSW 15 24 8 13 1012.6 1011.6 0.2
05/03:30pm 19.5 16.2 6.6 43 6.6 SSW 13 22 7 12 1012.9 1012.0 0.2
05/03:00pm 19.9 15.9 6.6 42 6.8 SW 17 24 9 13 1012.6 1011.6 0.2
05/02:30pm 19.0 15.2 5.8 42 6.6 SW 15 28 8 15 1012.3 1011.3 0.2
05/02:00pm 18.8 14.6 5.6 42 6.6 SSW 17 26 9 14 1012.5 1011.5 0.2
05/01:30pm 19.0 14.8 5.8 42 6.6 SW 17 26 9 14 1012.6 1011.6 0.2
05/01:00pm 18.2 13.9 7.0 48 5.7 SSW 19 30 10 16 1012.7 1011.8 0.2
05/12:30pm 18.3 14.3 9.1 55 4.9 S 20 30 11 16 1012.5 1011.5 0.2
05/12:00pm 16.9 13.4 8.8 59 4.3 SSW 17 26 9 14 1012.8 1011.9 0.2
05/11:30am 16.4 12.0 7.6 56 4.5 S 20 30 11 16 1012.8 1011.9 0.2
05/11:00am 15.4 11.2 8.2 62 3.7 SSW 20 26 11 14 1013.0 1012.1 0.0
05/10:30am 14.7 9.8 8.6 67 3.2 SSW 24 32 13 17 1012.8 1011.9 0.0
05/10:00am 15.2 11.8 10.6 74 2.5 SSW 19 26 10 14 1012.4 1011.4 0.0
05/09:30am 14.0 10.4 10.6 80 1.8 SW 20 30 11 16 1012.6 1011.6 0.0
05/09:00am 12.6 9.4 10.0 84 1.4 SSW 17 26 9 14 1012.4 1011.4 1.0
05/08:30am 12.1 8.7 11.2 94 0.5 SSW 20 28 11 15 1012.1 1011.1 1.0
05/08:29am 12.1 8.7 11.2 94 0.5 SSW 20 28 11 15 1012.1 1011.1 1.0
05/08:00am 12.3 9.3 12.0 98 0.2 SSW 19 26 10 14 1011.5 1010.5 1.0
05/07:30am 12.2 10.0 12.0 99 0.1 SSW 15 28 8 15 1011.0 1010.0 1.0
05/07:00am 12.7 10.3 12.7 100 0.0 SW 17 26 9 14 1010.3 1009.3 1.0
05/06:30am 12.9 9.6 12.9 100 0.0 SW 22 35 12 19 1009.6 1008.6 1.0
05/06:00am 13.4 10.7 13.4 100 0.0 SW 20 30 11 16 1009.3 1008.3 1.0
05/05:30am 14.7 12.6 14.7 100 0.0 SSW 19 28 10 15 1008.8 1007.8 1.0
05/05:19am 15.2 13.1 15.2 100 0.0 SW 20 28 11 15 1008.7 1007.7 1.0

Other Formats:

Comma delimited format used in spreadsheet applications
http://www.bom.gov.au/fwo/IDV60801/IDV60801.94852.axf

JavaScript Object Notation format (JSON) in row-major order
http://www.bom.gov.au/fwo/IDV60801/IDV60801.94852.json